createdAt,value
2023-05-09T00:00:40.006Z,0.25
2023-05-09T00:10:48.738Z,0.14
2023-05-09T00:20:51.174Z,-0.01
2023-05-09T00:30:53.958Z,-0.06
2023-05-09T00:40:56.247Z,-0.16
2023-05-09T00:50:58.634Z,-0.36
2023-05-09T01:01:02.506Z,-0.38
2023-05-09T01:11:13.231Z,-0.49
2023-05-09T01:21:27.174Z,-0.63
2023-05-09T01:31:30.681Z,-0.72
2023-05-09T01:41:37.749Z,-0.72
2023-05-09T01:51:43.827Z,-0.90
2023-05-09T02:01:47.575Z,-1.00
2023-05-09T02:11:49.989Z,-1.13
2023-05-09T05:05:12.365Z,3.44
2023-05-09T05:15:15.395Z,3.09
2023-05-09T05:25:18.836Z,3.32
2023-05-09T05:35:23.535Z,4.01
2023-05-09T05:45:26.246Z,4.67
2023-05-09T05:55:28.578Z,8.02
2023-05-09T06:05:31.010Z,6.85
2023-05-09T06:15:33.264Z,7.41
2023-05-09T06:25:35.596Z,7.91
2023-05-09T06:35:37.953Z,8.27
2023-05-09T06:45:40.246Z,14.17
2023-05-09T06:55:42.990Z,11.73
2023-05-09T07:05:45.383Z,12.73
2023-05-09T07:15:47.683Z,17.32
2023-05-09T07:25:49.943Z,15.32
2023-05-09T07:35:53.296Z,22.15
2023-05-09T07:45:55.696Z,23.29
2023-05-09T07:55:58.908Z,25.05
2023-05-09T08:06:01.225Z,19.91
2023-05-09T08:16:03.859Z,18.31
2023-05-09T08:26:06.170Z,16.08
2023-05-09T08:36:08.700Z,14.47
2023-05-09T08:46:12.679Z,14.42
2023-05-09T08:56:15.637Z,14.40
2023-05-09T09:06:19.048Z,14.32
2023-05-09T09:16:24.418Z,14.75
2023-05-09T09:26:29.575Z,14.79
2023-05-09T09:36:32.806Z,15.04
2023-05-09T09:46:56.558Z,15.26
2023-05-09T09:56:59.006Z,15.32
2023-05-09T10:07:06.322Z,15.63
2023-05-09T10:17:11.539Z,15.93
2023-05-09T10:27:15.922Z,16.14
2023-05-09T10:37:18.406Z,16.56
2023-05-09T10:47:21.881Z,16.49
2023-05-09T10:57:24.241Z,16.53
2023-05-09T11:07:27.732Z,16.58
2023-05-09T11:17:31.781Z,16.46
2023-05-09T11:27:48.818Z,17.00
2023-05-09T11:38:05.798Z,17.55
2023-05-09T11:48:11.288Z,17.64
2023-05-09T11:58:13.751Z,17.59
2023-05-09T12:08:16.570Z,18.03
2023-05-09T12:18:18.974Z,17.85
2023-05-09T12:28:26.457Z,17.47
2023-05-09T12:38:29.305Z,17.93
2023-05-09T12:48:38.040Z,17.62
2023-05-09T12:58:40.419Z,17.90
2023-05-09T13:08:42.781Z,17.78
2023-05-09T13:18:45.081Z,17.67
2023-05-09T13:28:47.455Z,17.77
2023-05-09T13:38:49.825Z,17.61
2023-05-09T13:48:52.214Z,17.22
2023-05-09T13:58:54.511Z,17.36
2023-05-09T14:08:57.466Z,17.33
2023-05-09T14:18:59.845Z,17.58
2023-05-09T14:29:03.607Z,17.69
2023-05-09T14:39:06.566Z,17.87
2023-05-09T14:49:09.397Z,17.96
2023-05-09T14:59:12.365Z,17.90
2023-05-09T15:09:14.978Z,17.39
2023-05-09T15:19:17.676Z,17.87
2023-05-09T15:29:20.647Z,18.16
2023-05-09T15:39:22.984Z,18.03
2023-05-09T15:49:25.351Z,17.92
2023-05-09T15:59:27.934Z,18.05
2023-05-09T16:09:30.283Z,17.93
2023-05-09T16:19:35.003Z,17.37
2023-05-09T16:29:38.190Z,17.17
2023-05-09T16:39:40.504Z,16.66
2023-05-09T16:49:42.910Z,16.36
2023-05-09T16:59:46.023Z,15.86
2023-05-09T17:09:49.898Z,15.28
2023-05-09T17:19:52.574Z,14.78
2023-05-09T17:29:54.865Z,14.37
2023-05-09T17:39:57.586Z,13.88
2023-05-09T17:49:59.904Z,13.59
2023-05-09T18:00:02.416Z,13.26
2023-05-09T18:10:05.412Z,12.70
2023-05-09T18:20:08.774Z,11.86
2023-05-09T18:30:11.418Z,11.02
2023-05-09T18:40:15.951Z,10.34
2023-05-09T18:50:19.128Z,9.67
2023-05-09T19:00:21.581Z,9.07
2023-05-09T19:10:24.034Z,8.68
2023-05-09T19:20:26.822Z,8.33
2023-05-09T19:30:29.188Z,7.94
2023-05-09T19:40:31.499Z,7.66
2023-05-09T19:50:33.766Z,7.54
2023-05-09T20:00:36.320Z,7.30
2023-05-09T20:10:38.626Z,7.33
2023-05-09T20:20:41.335Z,8.83
2023-05-09T20:30:43.700Z,9.43
2023-05-09T20:40:45.989Z,9.61
2023-05-09T20:50:48.357Z,9.81
2023-05-09T21:00:50.697Z,10.11
2023-05-09T21:10:53.126Z,10.38
2023-05-09T21:20:55.460Z,10.15
2023-05-09T21:30:57.918Z,10.33
2023-05-09T21:41:00.219Z,10.24
2023-05-09T21:51:03.346Z,10.25
2023-05-09T22:10:10.127Z,10.27
2023-05-09T22:20:12.845Z,10.20
2023-05-09T22:30:15.595Z,10.18
2023-05-09T22:40:18.251Z,10.19
2023-05-09T22:50:20.517Z,9.22
2023-05-09T23:00:22.830Z,8.93
2023-05-09T23:10:25.103Z,8.23
2023-05-09T23:20:27.430Z,7.66
2023-05-09T23:30:29.717Z,7.36
2023-05-09T23:40:32.064Z,7.05
2023-05-09T23:50:34.475Z,6.78
